Time;durP1;ratioP1;P1;durP2;ratioP2;P2;SDS_P1;SDS_P2;PMS_P1;PMS_P2;Temp;Humidity;BMP_temperature;BMP_pressure;BME280_temperature;BME280_humidity;BME280_pressure;Samples;Min_cycle;Max_cycle;Signal;HPM_P1;HPM_P2
2022/11/30 00:00:27;;;;;;;;;16.75;14.00;;;;;8.61;81.63;100350.03;5076457;28;9529;-59
2022/11/30 00:02:55;;;;;;;;;15.60;13.20;;;;;8.61;81.01;100350.03;5076331;28;8822;-59
2022/11/30 00:05:24;;;;;;;;;20.60;19.00;;;;;8.60;81.51;100353.59;5076362;28;8825;-59
2022/11/30 00:07:53;;;;;;;;;11.50;11.50;;;;;8.62;81.29;100356.19;5075746;28;9527;-59
2022/11/30 00:10:21;;;;;;;;;15.40;13.00;;;;;8.62;81.25;100353.53;5075141;28;8830;-59
2022/11/30 00:12:48;;;;;;;;;16.00;15.00;;;;;8.63;81.51;100356.09;5075783;28;8809;-59
2022/11/30 00:15:16;;;;;;;;;17.20;15.00;;;;;8.62;81.89;100357.03;5075289;28;8873;-57
2022/11/30 00:17:44;;;;;;;;;19.80;12.00;;;;;8.61;81.79;100355.34;5075185;28;8849;-59
2022/11/30 00:20:12;;;;;;;;;10.25;8.50;;;;;8.61;81.62;100359.78;5075231;28;8829;-59
2022/11/30 00:22:39;;;;;;;;;15.80;14.60;;;;;8.61;81.62;100354.47;5075678;28;8915;-59
2022/11/30 00:25:07;;;;;;;;;12.20;9.60;;;;;8.62;81.30;100359.69;5075166;28;8911;-58
2022/11/30 00:27:35;;;;;;;;;12.60;8.20;;;;;8.61;81.56;100360.66;5075576;28;8964;-58
2022/11/30 00:30:03;;;;;;;;;15.20;14.00;;;;;8.61;81.10;100349.16;5075190;28;8821;-59
2022/11/30 00:32:30;;;;;;;;;10.80;9.60;;;;;8.60;81.42;100353.59;5074730;28;8841;-59
2022/11/30 00:34:58;;;;;;;;;16.25;11.75;;;;;8.61;81.12;100351.81;5075326;28;8822;-59
2022/11/30 00:37:27;;;;;;;;;11.60;10.00;;;;;8.59;81.49;100357.22;5075367;28;8828;-58
2022/11/30 00:39:55;;;;;;;;;17.40;14.60;;;;;8.60;81.61;100355.44;5075426;28;8853;-57
2022/11/30 00:42:22;;;;;;;;;18.40;17.00;;;;;8.59;81.22;100354.56;5075074;28;8891;-59
2022/11/30 00:44:50;;;;;;;;;11.80;11.00;;;;;8.59;81.62;100359.88;5075388;28;8861;-59
2022/11/30 00:47:18;;;;;;;;;16.00;10.80;;;;;8.58;81.87;100358.19;5075440;28;8837;-57
2022/11/30 00:49:48;;;;;;;;;18.00;15.00;;;;;8.56;81.42;100354.78;5075380;28;8843;-59
2022/11/30 00:52:16;;;;;;;;;14.80;13.80;;;;;8.54;81.54;100356.69;5075372;28;8852;-59
2022/11/30 00:54:44;;;;;;;;;19.80;17.80;;;;;8.54;81.64;100353.16;5073913;28;8806;-57
2022/11/30 00:57:12;;;;;;;;;19.60;16.80;;;;;8.53;81.60;100354.97;5075229;28;8898;-59
2022/11/30 00:59:40;;;;;;;;;15.60;13.80;;;;;8.51;81.59;100348.91;5075126;28;8899;-58
2022/11/30 01:02:09;;;;;;;;;18.40;15.60;;;;;8.52;81.83;100347.13;5074476;28;8837;-59
2022/11/30 01:04:37;;;;;;;;;18.00;14.60;;;;;8.52;81.66;100337.34;5075367;28;8822;-58
2022/11/30 01:07:05;;;;;;;;;13.20;9.60;;;;;8.51;81.53;100345.41;5075472;28;9605;-58
2022/11/30 01:09:33;;;;;;;;;15.60;12.80;;;;;8.51;81.82;100350.72;5075139;28;8833;-59
2022/11/30 01:12:01;;;;;;;;;14.60;9.20;;;;;8.50;81.38;100344.56;5075358;28;9558;-58
2022/11/30 01:14:28;;;;;;;;;18.25;15.50;;;;;8.49;82.06;100352.59;5075148;28;8834;-58
2022/11/30 01:16:56;;;;;;;;;13.40;11.40;;;;;8.47;81.74;100360.69;5075543;28;8830;-57
2022/11/30 01:19:24;;;;;;;;;18.40;15.80;;;;;8.46;81.66;100361.63;5075491;28;8841;-59
2022/11/30 01:21:51;;;;;;;;;12.00;10.00;;;;;8.43;81.82;100359.16;5075032;28;8834;-58
2022/11/30 01:24:19;;;;;;;;;17.60;14.00;;;;;8.43;81.84;100361.81;5074883;28;8858;-60
2022/11/30 01:26:47;;;;;;;;;17.60;10.40;;;;;8.43;81.84;100356.50;5075053;28;9503;-59
2022/11/30 01:29:15;;;;;;;;;13.00;12.00;;;;;8.42;81.97;100361.91;5074526;28;8892;-59
2022/11/30 01:31:42;;;;;;;;;13.20;12.20;;;;;8.41;81.59;100366.38;5074618;28;8833;-59
2022/11/30 01:34:10;;;;;;;;;12.40;10.60;;;;;8.40;81.83;100367.34;5075180;28;8834;-59
2022/11/30 01:36:38;;;;;;;;;10.00;7.40;;;;;8.40;81.96;100370.00;5076360;28;8853;-58
2022/11/30 01:39:06;;;;;;;;;11.80;10.40;;;;;8.40;81.69;100367.34;5078834;28;8840;-58
2022/11/30 01:41:33;;;;;;;;;11.60;9.80;;;;;8.41;82.12;100358.41;5079110;28;8926;-58
2022/11/30 01:44:01;;;;;;;;;19.80;14.80;;;;;8.42;81.82;100360.13;5078665;28;8814;-58
2022/11/30 01:46:29;;;;;;;;;16.75;13.75;;;;;8.43;82.02;100366.28;5078592;28;8842;-57
2022/11/30 01:48:56;;;;;;;;;12.00;11.00;;;;;8.44;81.54;100371.47;5079164;28;9643;-59
2022/11/30 01:51:24;;;;;;;;;17.75;11.50;;;;;8.44;82.10;100371.47;5078718;28;8826;-58
2022/11/30 01:53:52;;;;;;;;;15.00;10.80;;;;;8.45;82.12;100367.88;5078886;28;8845;-56
2022/11/30 01:56:20;;;;;;;;;7.00;7.00;;;;;8.45;81.29;100367.88;5078661;28;8840;-58
2022/11/30 01:58:47;;;;;;;;;16.00;13.00;;;;;8.46;81.73;100379.34;5078606;28;8837;-59
2022/11/30 02:01:15;;;;;;;;;14.60;13.20;;;;;8.45;81.97;100372.34;5078524;28;8810;-59
2022/11/30 02:03:44;;;;;;;;;13.50;12.00;;;;;8.44;81.86;100368.81;5078255;28;8818;-58
2022/11/30 02:06:12;;;;;;;;;15.20;13.80;;;;;8.44;81.77;100375.94;5078516;28;8810;-59
2022/11/30 02:08:40;;;;;;;;;8.60;5.60;;;;;8.43;81.70;100369.78;5078331;28;8825;-59
2022/11/30 02:11:07;;;;;;;;;15.80;13.80;;;;;8.43;81.58;100368.94;5078311;28;8822;-59
2022/11/30 02:13:35;;;;;;;;;17.60;15.00;;;;;8.43;81.86;100368.94;5078206;28;8822;-59
2022/11/30 02:16:02;;;;;;;;;17.60;15.60;;;;;8.43;82.03;100361.81;5078428;28;8833;-59
2022/11/30 02:18:31;;;;;;;;;15.40;12.80;;;;;8.44;81.68;100363.53;5078657;28;8899;-59
2022/11/30 02:20:58;;;;;;;;;16.80;15.40;;;;;8.44;82.07;100365.34;5078386;28;8876;-59
2022/11/30 02:23:26;;;;;;;;;16.00;14.40;;;;;8.41;81.79;100355.75;5078292;28;8955;-58
2022/11/30 02:25:54;;;;;;;;;11.40;9.20;;;;;8.41;81.64;100358.41;5077952;28;8820;-59
2022/11/30 02:28:22;;;;;;;;;18.20;15.60;;;;;8.41;81.76;100355.75;5078270;28;8818;-59
2022/11/30 02:30:50;;;;;;;;;9.60;9.40;;;;;8.42;81.72;100352.16;5078256;28;8837;-59
2022/11/30 02:33:18;;;;;;;;;23.40;17.20;;;;;8.41;81.74;100355.75;5078053;28;8826;-59
2022/11/30 02:35:45;;;;;;;;;13.40;10.00;;;;;8.42;82.11;100343.34;5078145;28;9476;-59
2022/11/30 02:38:20;;;;;;;;;15.80;12.00;;;;;8.41;81.96;100358.41;5077707;28;9492;-59
2022/11/30 02:40:51;;;;;;;;;4.40;4.40;;;;;8.41;82.01;100350.47;5077985;28;8814;-59
2022/11/30 02:43:19;;;;;;;;;12.40;9.00;;;;;8.41;81.79;100352.25;5077986;28;8829;-59
2022/11/30 02:45:47;;;;;;;;;13.20;11.00;;;;;8.41;81.98;100350.47;5077529;28;8984;-56
2022/11/30 02:48:14;;;;;;;;;11.20;9.60;;;;;8.42;81.83;100348.63;5076891;28;8806;-58
2022/11/30 02:50:42;;;;;;;;;13.40;13.00;;;;;8.41;82.01;100358.41;5077176;28;8906;-59
2022/11/30 02:53:12;;;;;;;;;10.00;9.40;;;;;8.42;81.74;100362.78;5077459;28;8830;-59
2022/11/30 02:55:40;;;;;;;;;14.20;12.20;;;;;8.43;82.10;100359.16;5077110;28;8818;-59
2022/11/30 02:58:07;;;;;;;;;10.80;10.40;;;;;8.42;81.90;100362.78;5076953;28;8836;-59
2022/11/30 03:00:35;;;;;;;;;6.75;6.00;;;;;8.43;81.79;100364.47;5076907;28;8814;-59
2022/11/30 03:03:09;;;;;;;;;10.00;7.00;;;;;8.42;81.84;100365.44;5077673;28;9526;-59
2022/11/30 03:05:38;;;;;;;;;15.40;12.80;;;;;8.41;81.78;100366.38;5077391;28;8903;-58
2022/11/30 03:08:06;;;;;;;;;13.80;11.60;;;;;8.41;82.10;100361.06;5077203;28;8830;-59
2022/11/30 03:10:34;;;;;;;;;10.50;8.50;;;;;8.39;81.97;100367.44;5077219;28;8829;-59
2022/11/30 03:13:01;;;;;;;;;13.80;12.00;;;;;8.38;82.28;100371.03;5077447;28;8911;-59
2022/11/30 03:15:29;;;;;;;;;9.20;7.00;;;;;8.38;82.39;100371.88;5076971;28;8947;-59
2022/11/30 03:17:56;;;;;;;;;15.25;13.25;;;;;8.36;82.50;100384.38;5077216;28;8821;-59
2022/11/30 03:20:24;;;;;;;;;12.80;11.20;;;;;8.37;82.48;100380.78;5077273;28;8810;-58
2022/11/30 03:22:52;;;;;;;;;13.00;12.00;;;;;8.36;82.44;100371.13;5077264;28;8826;-59
2022/11/30 03:25:20;;;;;;;;;16.00;10.40;;;;;8.35;82.32;100380.03;5076863;28;8817;-59
2022/11/30 03:27:47;;;;;;;;;14.60;11.20;;;;;8.33;82.76;100376.63;5076939;28;8910;-59
2022/11/30 03:30:16;;;;;;;;;14.20;14.20;;;;;8.30;82.96;100374.16;5076584;28;8846;-57
2022/11/30 03:32:44;;;;;;;;;10.80;9.20;;;;;8.26;82.71;100385.94;5077006;28;8817;-56
2022/11/30 03:35:12;;;;;;;;;9.00;6.50;;;;;8.22;82.97;100384.41;5076762;28;8826;-57
2022/11/30 03:37:40;;;;;;;;;9.25;7.50;;;;;8.20;82.36;100383.66;5076734;28;9599;-59
2022/11/30 03:40:07;;;;;;;;;20.20;15.60;;;;;8.16;82.65;100382.13;5076766;28;8829;-59
2022/11/30 03:42:36;;;;;;;;;15.00;14.60;;;;;8.14;83.10;100386.66;5077059;28;8845;-59
2022/11/30 03:45:03;;;;;;;;;15.00;13.00;;;;;8.13;83.15;100387.59;5076853;28;8822;-57
2022/11/30 03:47:31;;;;;;;;;12.00;9.80;;;;;8.12;83.18;100388.56;5076515;28;8906;-58
2022/11/30 03:49:58;;;;;;;;;7.25;3.50;;;;;8.12;83.30;100391.22;5076298;28;8841;-58
2022/11/30 03:52:26;;;;;;;;;8.00;8.00;;;;;8.09;83.21;100396.72;5076543;28;8891;-59
2022/11/30 03:54:53;;;;;;;;;15.00;10.80;;;;;8.07;83.11;100403.88;5075834;28;8802;-59
2022/11/30 03:57:21;;;;;;;;;12.00;10.00;;;;;8.01;83.21;100401.66;5075758;28;8833;-59
2022/11/30 03:59:49;;;;;;;;;13.60;9.00;;;;;7.95;83.47;100399.38;5074601;28;8838;-59
2022/11/30 04:02:17;;;;;;;;;12.40;10.00;;;;;7.90;83.21;100403.25;5067312;28;8826;-59
2022/11/30 04:04:44;;;;;;;;;8.60;8.20;;;;;7.83;83.31;100404.56;5075170;28;8826;-59
2022/11/30 04:07:13;;;;;;;;;15.20;13.40;;;;;7.76;83.72;100413.84;5075496;28;8825;-59
2022/11/30 04:09:41;;;;;;;;;9.20;8.60;;;;;7.68;83.77;100411.63;5075406;28;8838;-59
2022/11/30 04:12:08;;;;;;;;;6.00;6.00;;;;;7.66;83.95;100417.13;5074946;28;8938;-59
2022/11/30 04:14:36;;;;;;;;;9.60;8.20;;;;;7.63;84.17;100414.66;5075302;28;8830;-59
2022/11/30 04:17:04;;;;;;;;;10.40;9.80;;;;;7.61;84.08;100417.41;5075642;28;8864;-59
2022/11/30 04:19:31;;;;;;;;;12.20;10.40;;;;;7.57;84.17;100423.00;5075448;28;8821;-58
2022/11/30 04:21:59;;;;;;;;;16.40;12.40;;;;;7.53;84.24;100427.63;5075523;28;8814;-59
2022/11/30 04:24:26;;;;;;;;;11.40;10.80;;;;;7.50;83.80;100416.34;5076009;28;8826;-59
2022/11/30 04:26:54;;;;;;;;;12.00;10.00;;;;;7.48;84.28;100421.72;5076098;28;8833;-59
2022/11/30 04:29:21;;;;;;;;;11.20;10.40;;;;;7.47;84.22;100427.13;5075488;28;8826;-58
2022/11/30 04:31:52;;;;;;;;;8.20;6.60;;;;;7.46;84.72;100422.75;5074724;28;8834;-58
2022/11/30 04:34:20;;;;;;;;;10.40;9.00;;;;;7.44;84.35;100419.34;5075068;28;8934;-58
2022/11/30 04:36:48;;;;;;;;;13.60;11.20;;;;;7.42;84.38;100418.59;5075669;28;8837;-58
2022/11/30 04:39:15;;;;;;;;;12.80;12.80;;;;;7.42;84.18;100427.38;5074933;28;8829;-58
2022/11/30 04:41:43;;;;;;;;;15.20;13.00;;;;;7.41;84.44;100433.63;5075497;28;9535;-58
2022/11/30 04:44:11;;;;;;;;;12.20;10.40;;;;;7.40;84.32;100434.59;5074670;28;8870;-58
2022/11/30 04:46:38;;;;;;;;;10.00;10.00;;;;;7.38;84.45;100439.13;5075887;28;9464;-59
2022/11/30 04:49:06;;;;;;;;;6.40;6.00;;;;;7.38;84.45;100432.97;5075340;28;8829;-59
2022/11/30 04:51:34;;;;;;;;;11.00;9.80;;;;;7.38;84.49;100433.84;5075527;28;8841;-59
2022/11/30 04:54:02;;;;;;;;;11.40;10.60;;;;;7.37;84.80;100436.56;5075517;28;8821;-58
2022/11/30 04:56:30;;;;;;;;;15.40;12.00;;;;;7.37;84.21;100434.78;5075378;28;8848;-59
2022/11/30 04:58:58;;;;;;;;;14.20;12.40;;;;;7.36;84.09;100442.81;5075330;28;8895;-56
2022/11/30 05:01:26;;;;;;;;;10.80;10.00;;;;;7.35;84.36;100438.44;5075496;28;9613;-59
2022/11/30 05:03:53;;;;;;;;;15.00;12.00;;;;;7.34;84.39;100442.88;5075427;28;8848;-59
2022/11/30 05:06:21;;;;;;;;;15.80;14.20;;;;;7.36;83.93;100446.28;5075395;28;8856;-59
2022/11/30 05:08:50;;;;;;;;;15.60;12.80;;;;;7.37;84.72;100437.44;5075472;28;8841;-59
2022/11/30 05:11:18;;;;;;;;;15.80;13.40;;;;;7.37;84.62;100439.22;5077479;28;8853;-59
2022/11/30 05:13:46;;;;;;;;;15.00;11.60;;;;;7.34;83.96;100437.59;5078845;28;8817;-59
2022/11/30 05:16:13;;;;;;;;;17.80;12.60;;;;;7.33;84.37;100435.88;5078639;28;8928;-59
2022/11/30 05:18:41;;;;;;;;;11.40;11.00;;;;;7.35;84.61;100444.59;5077690;28;8842;-58
2022/11/30 05:21:09;;;;;;;;;18.60;17.60;;;;;7.37;83.87;100448.03;5076919;28;8857;-57
2022/11/30 05:23:36;;;;;;;;;12.60;12.40;;;;;7.37;84.17;100448.03;5077050;28;8864;-58
2022/11/30 05:26:04;;;;;;;;;11.20;9.00;;;;;7.37;84.21;100449.81;5077019;28;8826;-59
2022/11/30 05:28:32;;;;;;;;;12.00;10.80;;;;;7.36;84.09;100454.22;5077980;28;9547;-58
2022/11/30 05:30:59;;;;;;;;;6.00;4.40;;;;;7.35;84.01;100454.34;5077796;28;8869;-58
2022/11/30 05:33:27;;;;;;;;;17.20;15.00;;;;;7.34;84.02;100458.78;5077895;28;8818;-58
2022/11/30 05:35:56;;;;;;;;;15.00;12.40;;;;;7.35;84.22;100451.69;5077835;28;8853;-58
2022/11/30 05:38:23;;;;;;;;;14.60;14.20;;;;;7.36;83.89;100453.41;5077949;28;8817;-57
2022/11/30 05:40:51;;;;;;;;;17.00;11.80;;;;;7.35;83.72;100455.19;5077460;28;8852;-59
2022/11/30 05:43:19;;;;;;;;;10.00;8.20;;;;;7.35;83.96;100454.34;5076059;28;8822;-59
2022/11/30 05:45:46;;;;;;;;;13.00;11.20;;;;;7.35;83.87;100459.66;5075461;28;8854;-58
2022/11/30 05:48:14;;;;;;;;;14.80;13.00;;;;;7.34;84.02;100455.28;5075577;28;8842;-58
2022/11/30 05:50:42;;;;;;;;;15.00;11.20;;;;;7.33;84.01;100454.44;5076811;28;8825;-58
2022/11/30 05:53:09;;;;;;;;;10.00;8.60;;;;;7.33;84.01;100449.13;5076596;28;8836;-57
2022/11/30 05:55:37;;;;;;;;;11.00;9.40;;;;;7.32;84.22;100454.50;5077189;28;8833;-59
2022/11/30 05:58:05;;;;;;;;;9.60;9.00;;;;;7.30;83.88;100454.63;5077819;28;8934;-59
2022/11/30 06:00:33;;;;;;;;;11.20;9.60;;;;;7.29;83.92;100452.88;5077797;28;8826;-59
2022/11/30 06:03:01;;;;;;;;;12.40;12.00;;;;;7.27;83.52;100461.88;5077369;28;8834;-56
2022/11/30 06:05:29;;;;;;;;;13.20;11.00;;;;;7.25;83.93;100455.81;5077271;28;8836;-59
2022/11/30 06:07:56;;;;;;;;;16.80;15.60;;;;;7.22;83.62;100454.22;5076364;28;8922;-59
2022/11/30 06:10:26;;;;;;;;;12.40;12.00;;;;;7.20;83.79;100456.06;5074836;28;9514;-57
2022/11/30 06:12:54;;;;;;;;;13.40;12.20;;;;;7.19;83.92;100458.81;5075627;28;8844;-58
2022/11/30 06:15:21;;;;;;;;;19.00;15.80;;;;;7.18;83.98;100451.78;5074589;28;8842;-59
2022/11/30 06:17:49;;;;;;;;;12.60;11.80;;;;;7.16;83.70;100448.38;5075457;28;8834;-59
2022/11/30 06:20:17;;;;;;;;;11.60;11.20;;;;;7.14;83.94;100450.28;5067642;28;8821;-59
2022/11/30 06:22:47;;;;;;;;;17.60;15.80;;;;;7.14;84.08;100447.63;5075202;28;8841;-58
2022/11/30 06:25:15;;;;;;;;;14.60;11.20;;;;;7.13;83.91;100446.78;5076621;28;8814;-59
2022/11/30 06:27:43;;;;;;;;;9.00;7.80;;;;;7.14;83.81;100447.63;5076422;28;8852;-57
2022/11/30 06:30:11;;;;;;;;;12.20;10.80;;;;;7.15;84.35;100455.50;5075616;28;8862;-59
2022/11/30 06:32:38;;;;;;;;;11.80;9.80;;;;;7.16;83.70;100453.69;5074814;28;8825;-59
2022/11/30 06:35:06;;;;;;;;;8.80;6.80;;;;;7.18;84.30;100451.78;5074809;28;8861;-59
2022/11/30 06:37:34;;;;;;;;;16.00;12.60;;;;;7.16;83.52;100454.56;5074772;28;8826;-58
2022/11/30 06:40:02;;;;;;;;;9.60;5.80;;;;;7.18;83.71;100457.97;5074501;28;8841;-59
2022/11/30 06:42:34;;;;;;;;;16.20;14.00;;;;;7.19;83.87;100458.81;5074539;28;8821;-58
2022/11/30 06:45:01;;;;;;;;;13.00;12.40;;;;;7.19;83.70;100458.81;5073894;28;8862;-58
2022/11/30 06:47:29;;;;;;;;;14.20;13.40;;;;;7.19;83.44;100464.13;5074428;28;8814;-59
2022/11/30 06:49:57;;;;;;;;;7.40;4.00;;;;;7.19;83.90;100464.13;5074646;28;8826;-59
2022/11/30 06:52:25;;;;;;;;;14.00;11.00;;;;;7.19;83.74;100462.31;5072855;28;8872;-59
2022/11/30 06:54:52;;;;;;;;;15.60;10.80;;;;;7.21;83.72;100468.38;5072251;28;8852;-59
2022/11/30 06:57:20;;;;;;;;;14.20;12.60;;;;;7.22;83.72;100463.94;5072793;28;8865;-59
2022/11/30 06:59:48;;;;;;;;;22.80;17.60;;;;;7.23;83.63;100460.34;5072186;28;8864;-59
2022/11/30 07:02:16;;;;;;;;;13.40;12.20;;;;;7.24;83.65;100459.41;5071673;28;8838;-59
2022/11/30 07:04:45;;;;;;;;;9.40;6.40;;;;;7.27;83.31;100470.66;5072104;28;8852;-59
2022/11/30 07:07:13;;;;;;;;;13.60;10.20;;;;;7.30;83.52;100469.63;5072787;28;8834;-59
2022/11/30 07:09:41;;;;;;;;;18.00;13.80;;;;;7.31;83.43;100468.69;5073372;28;8872;-59
2022/11/30 07:12:10;;;;;;;;;14.00;13.00;;;;;7.32;83.35;100470.41;5073211;28;8918;-59
2022/11/30 07:14:38;;;;;;;;;11.20;9.60;;;;;7.32;83.37;100479.22;5072951;28;8841;-59
2022/11/30 07:17:06;;;;;;;;;19.20;17.60;;;;;7.34;83.53;100479.13;5073221;28;8822;-58
2022/11/30 07:19:34;;;;;;;;;15.00;13.00;;;;;7.33;83.17;100480.91;5072633;28;8833;-59
2022/11/30 07:22:02;;;;;;;;;15.00;11.20;;;;;7.37;83.14;100489.53;5073218;28;8830;-58
2022/11/30 07:27:17;;;;;;;;;16.00;12.60;;;;;7.42;83.16;100490.13;5073104;28;8842;-59
2022/11/30 07:29:47;;;;;;;;;19.00;16.80;;;;;7.44;83.57;100488.25;5072349;28;8840;-58
2022/11/30 07:32:15;;;;;;;;;14.20;12.00;;;;;7.44;83.42;100489.06;5071688;28;8872;-59
2022/11/30 07:34:43;;;;;;;;;15.40;13.80;;;;;7.44;83.46;100502.31;5070831;28;8842;-59
2022/11/30 07:37:11;;;;;;;;;15.20;13.40;;;;;7.47;83.30;100496.88;5072341;28;8931;-59
2022/11/30 07:39:39;;;;;;;;;18.20;14.20;;;;;7.48;83.37;100497.69;5073389;28;8915;-58
2022/11/30 07:42:07;;;;;;;;;21.00;17.20;;;;;7.49;83.33;100500.28;5073859;28;8826;-59
2022/11/30 07:44:35;;;;;;;;;15.00;12.80;;;;;7.51;83.09;100502.84;5072760;28;8877;-57
2022/11/30 07:47:03;;;;;;;;;12.40;10.80;;;;;7.51;83.39;100508.16;5073265;28;8872;-57
2022/11/30 07:49:30;;;;;;;;;10.40;9.00;;;;;7.51;83.31;100514.28;5073659;28;8860;-59
2022/11/30 07:51:59;;;;;;;;;12.40;12.00;;;;;7.50;82.79;100517.03;5072916;28;8850;-59
2022/11/30 07:54:27;;;;;;;;;12.40;9.20;;;;;7.49;83.20;100515.34;5073430;28;8846;-57
2022/11/30 07:56:55;;;;;;;;;14.60;13.00;;;;;7.50;83.31;100517.88;5073080;28;8845;-59
2022/11/30 07:59:22;;;;;;;;;15.60;13.40;;;;;7.49;83.61;100510.03;5073362;28;8852;-59
2022/11/30 08:01:50;;;;;;;;;18.00;16.00;;;;;7.49;83.19;100513.53;5073113;28;8944;-58
2022/11/30 08:04:18;;;;;;;;;12.60;10.80;;;;;7.50;83.20;100523.16;5073179;28;8845;-56
2022/11/30 08:06:46;;;;;;;;;20.80;16.80;;;;;7.51;83.25;100516.94;5071379;28;8902;-58
2022/11/30 08:09:14;;;;;;;;;13.40;12.00;;;;;7.51;83.14;100522.22;5071763;28;8825;-58
2022/11/30 08:11:47;;;;;;;;;17.80;17.40;;;;;7.52;82.81;100523.97;5071818;28;9503;-57
2022/11/30 08:14:15;;;;;;;;;19.60;16.60;;;;;7.54;83.19;100519.41;5071982;28;8865;-57
2022/11/30 08:16:43;;;;;;;;;15.00;13.80;;;;;7.56;83.06;100527.25;5072447;28;8935;-58
2022/11/30 08:19:11;;;;;;;;;13.80;12.00;;;;;7.57;82.97;100532.47;5072348;28;8853;-58
2022/11/30 08:21:39;;;;;;;;;15.80;13.80;;;;;7.58;83.13;100530.69;5072706;28;8830;-57
2022/11/30 08:24:07;;;;;;;;;17.80;14.60;;;;;7.60;83.11;100529.66;5073372;28;8925;-59
2022/11/30 08:26:35;;;;;;;;;17.80;17.20;;;;;7.62;83.12;100526.91;5074096;28;8851;-57
2022/11/30 08:29:03;;;;;;;;;18.40;16.80;;;;;7.62;83.08;100529.56;5074496;28;8975;-59
2022/11/30 08:31:32;;;;;;;;;19.60;15.00;;;;;7.62;83.04;100526.91;5073885;28;8817;-57
2022/11/30 08:33:59;;;;;;;;;17.20;13.40;;;;;7.64;83.10;100531.19;5072992;28;8906;-58
2022/11/30 08:36:27;;;;;;;;;17.40;16.20;;;;;7.66;82.89;100528.44;5074086;28;8927;-57
2022/11/30 08:38:55;;;;;;;;;13.60;12.00;;;;;7.66;82.89;100529.28;5073215;28;8846;-58
2022/11/30 08:41:25;;;;;;;;;18.20;14.20;;;;;7.68;83.12;100531.84;5072867;28;8984;-59
2022/11/30 08:43:53;;;;;;;;;9.00;6.00;;;;;7.68;83.01;100533.56;5072550;28;8872;-58
2022/11/30 08:46:21;;;;;;;;;22.60;20.60;;;;;7.70;82.97;100536.13;5071888;28;8853;-58
2022/11/30 08:49:09;;;;;;;;;16.60;14.40;;;;;7.71;83.01;100540.47;5071995;28;8838;-57
2022/11/30 08:51:55;;;;;;;;;23.40;18.60;;;;;7.72;82.84;100539.53;5071958;28;8904;-59
2022/11/30 08:54:44;;;;;;;;;13.00;12.80;;;;;7.72;82.98;100541.34;5073089;28;8853;-57
2022/11/30 08:57:14;;;;;;;;;15.80;13.60;;;;;7.71;82.96;100543.13;5073483;28;8856;-59
2022/11/30 08:59:41;;;;;;;;;11.80;10.00;;;;;7.70;83.01;100542.25;5072280;28;8861;-58
2022/11/30 09:02:12;;;;;;;;;13.00;11.80;;;;;7.72;82.84;100550.13;5071428;28;8826;-59
2022/11/30 09:04:40;;;;;;;;;21.20;16.80;;;;;7.72;82.72;100555.44;5070973;28;8915;-59
2022/11/30 09:07:08;;;;;;;;;9.20;9.20;;;;;7.75;83.17;100553.47;5071041;28;8867;-59
2022/11/30 09:09:36;;;;;;;;;21.20;19.00;;;;;7.75;82.83;100553.47;5071765;28;9297;-59
2022/11/30 09:12:05;;;;;;;;;19.40;18.00;;;;;7.79;82.35;100559.44;5071560;28;8846;-58
2022/11/30 09:14:35;;;;;;;;;15.40;13.80;;;;;7.82;82.55;100553.94;5071625;28;8935;-59
2022/11/30 09:17:03;;;;;;;;;18.80;15.00;;;;;7.84;82.62;100555.56;5070906;28;8846;-59
2022/11/30 09:19:31;;;;;;;;;14.20;12.80;;;;;7.89;82.42;100560.59;5070439;28;8832;-59
2022/11/30 09:21:59;;;;;;;;;16.40;14.60;;;;;7.91;82.94;100567.53;5070262;28;8818;-58
2022/11/30 09:24:27;;;;;;;;;13.00;11.60;;;;;7.94;82.66;100561.19;5070078;28;9677;-59
2022/11/30 09:26:56;;;;;;;;;20.80;18.80;;;;;7.97;82.63;100561.88;5069886;28;8834;-59
2022/11/30 09:29:24;;;;;;;;;21.20;19.00;;;;;7.98;82.56;100563.56;5070262;28;9006;-59
2022/11/30 09:31:52;;;;;;;;;18.60;13.80;;;;;8.00;82.14;100560.84;5070317;28;9519;-59
2022/11/30 09:34:20;;;;;;;;;12.80;11.60;;;;;7.99;82.30;100559.97;5070763;28;8825;-59
2022/11/30 09:36:48;;;;;;;;;15.00;12.80;;;;;8.00;82.47;100564.31;5070493;28;8826;-59
2022/11/30 09:39:16;;;;;;;;;13.00;11.60;;;;;7.98;82.43;100558.28;5071076;28;8836;-59
2022/11/30 09:41:44;;;;;;;;;15.60;10.00;;;;;7.97;82.76;100568.97;5069705;28;9067;-59
2022/11/30 09:44:12;;;;;;;;;19.40;16.00;;;;;7.96;82.80;100569.91;5068805;28;9592;-59
2022/11/30 09:46:40;;;;;;;;;12.00;9.80;;;;;7.94;82.53;100562.06;5069679;28;8955;-59
2022/11/30 09:49:08;;;;;;;;;20.60;18.60;;;;;7.95;82.29;100565.56;5069808;28;8911;-59
2022/11/30 09:51:37;;;;;;;;;18.60;17.80;;;;;7.93;82.72;100563.00;5070145;28;8818;-59
2022/11/30 09:54:07;;;;;;;;;16.20;15.20;;;;;7.94;82.58;100563.84;5070404;28;8838;-59
2022/11/30 09:56:36;;;;;;;;;22.80;19.80;;;;;7.94;82.79;100563.84;5071663;28;8987;-58
2022/11/30 09:59:04;;;;;;;;;18.60;17.40;;;;;7.93;82.48;100567.44;5073792;28;8876;-59
2022/11/30 10:01:33;;;;;;;;;22.00;19.80;;;;;7.95;82.93;100569.06;5075448;28;8869;-59
2022/11/30 10:04:04;;;;;;;;;16.00;14.60;;;;;7.98;82.59;100565.38;5074857;28;8971;-59
2022/11/30 10:06:32;;;;;;;;;15.00;12.80;;;;;8.01;82.76;100568.72;5073586;28;8821;-59
2022/11/30 10:09:00;;;;;;;;;10.80;9.40;;;;;8.01;82.49;100560.75;5073070;28;8830;-59
2022/11/30 10:11:27;;;;;;;;;15.80;14.20;;;;;8.02;82.72;100554.50;5070617;28;8829;-59
2022/11/30 10:13:55;;;;;;;;;15.40;12.40;;;;;8.05;82.78;100559.63;5073220;28;8841;-59
2022/11/30 10:16:24;;;;;;;;;17.80;16.20;;;;;8.05;82.52;100559.63;5073166;28;8983;-59
2022/11/30 10:18:52;;;;;;;;;10.00;9.20;;;;;8.05;82.51;100554.31;5073263;28;8869;-59
2022/11/30 10:21:20;;;;;;;;;19.20;17.40;;;;;8.06;82.75;100557.84;5073123;28;8830;-59
2022/11/30 10:23:49;;;;;;;;;19.00;17.20;;;;;8.03;83.04;100556.22;5073873;28;8980;-59
2022/11/30 10:26:17;;;;;;;;;9.80;9.40;;;;;8.04;82.74;100557.91;5073916;28;8842;-59
2022/11/30 10:28:45;;;;;;;;;17.60;15.20;;;;;8.05;82.60;100564.91;5074196;28;8841;-59
2022/11/30 10:31:14;;;;;;;;;13.80;13.40;;;;;8.03;82.85;100556.22;5073014;28;8818;-59
2022/11/30 10:33:43;;;;;;;;;21.40;17.20;;;;;8.03;82.68;100558.84;5074163;28;9532;-59
2022/11/30 10:36:10;;;;;;;;;19.40;14.60;;;;;8.06;82.34;100561.31;5072998;28;8841;-59
2022/11/30 10:38:38;;;;;;;;;23.80;17.20;;;;;8.07;82.50;100560.38;5074836;28;8960;-59
2022/11/30 10:41:09;;;;;;;;;19.00;16.40;;;;;8.05;82.52;100556.97;5073820;28;8845;-59
2022/11/30 10:43:37;;;;;;;;;19.80;16.40;;;;;8.07;82.74;100559.53;5072820;28;8822;-59
2022/11/30 10:46:05;;;;;;;;;12.40;11.80;;;;;8.09;82.56;100557.63;5074068;28;8943;-59
2022/11/30 10:48:36;;;;;;;;;16.80;12.40;;;;;8.08;82.54;100558.59;5073078;28;9494;-59
2022/11/30 10:51:04;;;;;;;;;18.20;15.60;;;;;8.09;82.25;100561.16;5073269;28;8845;-60
2022/11/30 10:53:33;;;;;;;;;11.40;10.40;;;;;8.07;82.44;100551.56;5073319;28;8848;-59
2022/11/30 10:56:00;;;;;;;;;18.00;17.20;;;;;8.07;82.74;100547.09;5073002;28;8834;-60
2022/11/30 10:58:28;;;;;;;;;12.60;12.20;;;;;8.08;82.64;100554.16;5073679;28;8929;-59
2022/11/30 11:00:56;;;;;;;;;15.00;13.60;;;;;8.08;82.49;100548.84;5073625;28;9491;-59
2022/11/30 11:03:25;;;;;;;;;14.00;11.20;;;;;8.08;82.57;100547.97;5073569;28;8911;-60
2022/11/30 11:05:52;;;;;;;;;16.40;13.40;;;;;8.08;82.64;100540.03;5074084;28;8837;-59
2022/11/30 11:08:20;;;;;;;;;9.60;6.60;;;;;8.08;82.61;100537.38;5072457;28;8872;-59
2022/11/30 11:10:50;;;;;;;;;16.80;15.40;;;;;8.09;82.90;100539.06;5070593;28;8833;-59
2022/11/30 11:13:18;;;;;;;;;13.80;12.40;;;;;8.12;82.83;100544.19;5063307;28;8915;-60
2022/11/30 11:15:46;;;;;;;;;11.20;10.00;;;;;8.11;82.87;100537.16;5070940;28;8842;-60
2022/11/30 11:18:16;;;;;;;;;18.20;16.00;;;;;8.12;82.57;100541.53;5071724;28;8848;-59
2022/11/30 11:20:44;;;;;;;;;15.00;13.80;;;;;8.12;82.72;100542.38;5071785;28;8833;-59
2022/11/30 11:23:11;;;;;;;;;13.60;11.20;;;;;8.13;82.95;100551.22;5071310;28;8826;-59
2022/11/30 11:25:42;;;;;;;;;15.20;15.20;;;;;8.14;82.60;100537.84;5071496;28;9189;-59
2022/11/30 11:28:09;;;;;;;;;20.60;12.80;;;;;8.15;82.75;100550.16;5071202;28;8959;-59
2022/11/30 11:30:39;;;;;;;;;6.00;5.60;;;;;8.14;82.80;100544.97;5072627;28;8852;-59
2022/11/30 11:33:07;;;;;;;;;12.80;12.00;;;;;8.13;82.62;100546.75;5071084;28;8834;-59